createdAt,value
2018-08-23T00:00:22.329Z,20.51
2018-08-23T00:02:51.226Z,20.52
2018-08-23T00:05:19.548Z,20.51
2018-08-23T00:07:47.890Z,20.50
2018-08-23T00:10:15.639Z,20.54
2018-08-23T00:12:43.945Z,20.52
2018-08-23T00:15:12.257Z,20.52
2018-08-23T00:17:40.571Z,20.55
2018-08-23T00:20:09.467Z,20.55
2018-08-23T00:22:37.202Z,20.56
2018-08-23T00:25:05.511Z,20.58
2018-08-23T00:27:34.404Z,20.62
2018-08-23T00:30:02.760Z,20.59
2018-08-23T00:32:30.505Z,20.59
2018-08-23T00:34:59.402Z,20.56
2018-08-23T00:37:27.126Z,20.56
2018-08-23T00:39:55.444Z,20.54
2018-08-23T00:42:24.334Z,20.53
2018-08-23T00:44:53.555Z,20.52
2018-08-23T00:47:21.871Z,20.52
2018-08-23T00:49:49.606Z,20.50
2018-08-23T00:52:18.493Z,20.51
2018-08-23T00:54:46.810Z,20.51
2018-08-23T00:57:17.692Z,20.51
2018-08-23T00:59:42.853Z,20.54
2018-08-23T01:02:11.745Z,20.55
2018-08-23T01:04:39.482Z,20.51
2018-08-23T01:07:07.790Z,20.52
2018-08-23T01:09:36.692Z,20.53
2018-08-23T01:12:04.422Z,20.51
2018-08-23T01:14:32.742Z,20.50
2018-08-23T01:17:01.679Z,20.47
2018-08-23T01:19:29.393Z,20.45
2018-08-23T01:21:58.296Z,20.43
2018-08-23T01:24:26.019Z,20.40
2018-08-23T01:26:54.900Z,20.43
2018-08-23T01:29:22.637Z,20.43
2018-08-23T01:31:51.031Z,20.44
2018-08-23T01:34:19.924Z,20.44
2018-08-23T01:36:48.240Z,20.43
2018-08-23T01:39:15.989Z,20.39
2018-08-23T01:41:44.305Z,20.38
2018-08-23T01:44:13.209Z,20.37
2018-08-23T01:46:41.584Z,20.38
2018-08-23T01:49:09.897Z,20.33
2018-08-23T01:51:37.637Z,20.33
2018-08-23T01:54:05.944Z,20.32
2018-08-23T01:56:34.840Z,20.30
2018-08-23T01:59:03.162Z,20.31
2018-08-23T02:01:31.482Z,20.30
2018-08-23T02:03:59.211Z,20.29
2018-08-23T02:06:28.107Z,20.27
2018-08-23T02:08:55.850Z,20.21
2018-08-23T02:11:24.735Z,20.16
2018-08-23T02:13:53.058Z,20.11
2018-08-23T02:16:21.364Z,20.09
2018-08-23T02:18:49.683Z,20.07
2018-08-23T02:21:17.995Z,20.05
2018-08-23T02:23:46.329Z,20.05
2018-08-23T02:26:14.059Z,20.04
2018-08-23T02:28:42.952Z,20.03
2018-08-23T02:31:10.697Z,20.01
2018-08-23T02:33:39.582Z,19.99
2018-08-23T02:36:07.897Z,19.99
2018-08-23T02:38:36.207Z,19.99
2018-08-23T02:41:04.517Z,19.97
2018-08-23T02:43:32.841Z,19.90
2018-08-23T02:46:01.149Z,19.88
2018-08-23T02:48:28.887Z,19.87
2018-08-23T02:50:57.211Z,19.86
2018-08-23T02:53:29.065Z,19.86
2018-08-23T02:55:56.801Z,19.86
2018-08-23T02:58:25.703Z,19.85
2018-08-23T03:00:53.433Z,19.86
2018-08-23T03:03:21.750Z,19.83
2018-08-23T03:05:50.657Z,19.81
2018-08-23T03:08:18.972Z,19.81
2018-08-23T03:10:46.705Z,19.80
2018-08-23T03:13:15.017Z,19.76
2018-08-23T03:15:43.350Z,19.80
2018-08-23T03:18:11.679Z,19.81
2018-08-23T03:20:39.996Z,19.82
2018-08-23T03:23:08.889Z,19.82
2018-08-23T03:25:37.207Z,19.82
2018-08-23T03:28:04.942Z,19.86
2018-08-23T03:30:33.831Z,19.83
2018-08-23T03:33:02.146Z,19.84
2018-08-23T03:35:29.881Z,19.87
2018-08-23T03:37:58.774Z,19.89
2018-08-23T03:40:27.085Z,19.92
2018-08-23T03:42:54.829Z,19.97
2018-08-23T03:45:23.161Z,20.02
2018-08-23T03:47:51.474Z,20.03
2018-08-23T03:50:19.793Z,20.03
2018-08-23T03:52:48.682Z,20.06
2018-08-23T03:55:16.421Z,20.11
2018-08-23T03:57:45.311Z,20.15
2018-08-23T04:00:13.047Z,20.13
2018-08-23T04:02:41.942Z,20.16
2018-08-23T04:05:09.685Z,20.20
2018-08-23T04:07:38.004Z,20.21
2018-08-23T04:10:06.891Z,20.22
2018-08-23T04:12:34.641Z,20.23
2018-08-23T04:15:02.930Z,20.20
2018-08-23T04:17:31.246Z,20.16
2018-08-23T04:20:00.647Z,20.14
2018-08-23T04:22:28.385Z,20.17
2018-08-23T04:24:56.693Z,20.39
2018-08-23T04:27:25.006Z,20.57
2018-08-23T04:29:53.329Z,20.63
2018-08-23T04:32:21.638Z,20.58
2018-08-23T04:34:49.954Z,20.47
2018-08-23T04:37:18.270Z,20.42
2018-08-23T04:39:47.161Z,20.43
2018-08-23T04:42:15.487Z,20.43
2018-08-23T04:44:43.216Z,20.57
2018-08-23T04:47:11.527Z,20.78
2018-08-23T04:49:39.853Z,20.99
2018-08-23T04:52:08.739Z,20.98
2018-08-23T04:54:37.051Z,20.91
2018-08-23T04:57:05.362Z,20.89
2018-08-23T04:59:33.687Z,20.89
2018-08-23T05:02:01.997Z,20.88
2018-08-23T05:04:29.737Z,20.85
2018-08-23T05:06:58.055Z,20.86
2018-08-23T05:09:26.949Z,20.87
2018-08-23T05:11:54.684Z,20.89
2018-08-23T05:14:23.576Z,20.98
2018-08-23T05:16:51.885Z,21.09
2018-08-23T05:19:19.618Z,21.22
2018-08-23T05:21:48.508Z,21.33
2018-08-23T05:24:16.256Z,21.42
2018-08-23T05:26:45.158Z,21.46
2018-08-23T05:29:13.480Z,21.45
2018-08-23T05:31:41.232Z,21.49
2018-08-23T05:34:10.118Z,21.51
2018-08-23T05:36:38.757Z,21.53
2018-08-23T05:39:07.068Z,21.55
2018-08-23T05:41:34.822Z,21.60
2018-08-23T05:44:03.721Z,21.67
2018-08-23T05:46:31.457Z,21.71
2018-08-23T05:48:59.767Z,21.74
2018-08-23T05:51:28.657Z,21.80
2018-08-23T05:53:56.981Z,21.88
2018-08-23T05:56:25.298Z,21.92
2018-08-23T05:58:53.610Z,21.95
2018-08-23T06:01:21.346Z,22.04
2018-08-23T06:03:49.655Z,22.12
2018-08-23T06:06:17.975Z,22.30
2018-08-23T06:08:47.688Z,22.89
2018-08-23T06:11:15.426Z,22.89
2018-08-23T06:13:43.742Z,22.78
2018-08-23T06:16:12.054Z,22.75
2018-08-23T06:18:40.373Z,22.71
2018-08-23T06:21:08.677Z,22.71
2018-08-23T06:23:37.568Z,22.72
2018-08-23T06:26:05.881Z,22.73
2018-08-23T06:28:34.198Z,22.71
2018-08-23T06:31:02.521Z,22.73
2018-08-23T06:33:31.201Z,22.76
2018-08-23T06:35:58.627Z,22.80
2018-08-23T06:38:27.526Z,22.88
2018-08-23T06:40:55.845Z,22.95
2018-08-23T06:43:24.150Z,23.03
2018-08-23T06:45:51.881Z,23.11
2018-08-23T06:48:20.199Z,23.18
2018-08-23T06:50:49.128Z,23.23
2018-08-23T06:53:17.441Z,23.32
2018-08-23T06:55:45.788Z,23.41
2018-08-23T06:58:14.931Z,23.45
2018-08-23T07:00:43.337Z,23.45
2018-08-23T07:03:11.735Z,23.47
2018-08-23T07:05:39.477Z,23.50
2018-08-23T07:08:08.435Z,23.56
2018-08-23T07:10:36.165Z,23.57
2018-08-23T07:13:05.369Z,23.59
2018-08-23T07:15:33.690Z,23.65
2018-08-23T07:18:02.032Z,23.71
2018-08-23T07:20:29.779Z,23.76
2018-08-23T07:22:58.113Z,23.80
2018-08-23T07:25:27.057Z,23.87
2018-08-23T07:27:55.395Z,23.89
2018-08-23T07:30:23.730Z,23.98
2018-08-23T07:32:51.478Z,24.06
2018-08-23T07:35:20.602Z,24.16
2018-08-23T07:37:48.109Z,24.27
2018-08-23T07:40:16.423Z,24.36
2018-08-23T07:42:45.316Z,24.47
2018-08-23T07:45:13.050Z,24.52
2018-08-23T07:47:41.948Z,24.56
2018-08-23T07:50:10.347Z,24.64
2018-08-23T07:52:38.599Z,24.69
2018-08-23T07:55:06.914Z,24.74
2018-08-23T07:57:34.649Z,24.81
2018-08-23T08:00:03.558Z,24.86
2018-08-23T08:02:31.864Z,24.88
2018-08-23T08:05:00.183Z,24.94
2018-08-23T08:07:28.506Z,25.00
2018-08-23T08:09:56.832Z,25.08
2018-08-23T08:12:24.564Z,25.12
2018-08-23T08:14:52.918Z,25.17
2018-08-23T08:17:21.783Z,25.22
2018-08-23T08:19:49.514Z,25.23
2018-08-23T08:22:18.690Z,25.27
2018-08-23T08:24:47.009Z,25.31
2018-08-23T08:27:14.836Z,25.39
2018-08-23T08:29:43.631Z,25.44
2018-08-23T08:32:11.948Z,25.51
2018-08-23T08:34:40.269Z,25.61
2018-08-23T08:37:08.820Z,25.71
2018-08-23T08:39:36.913Z,25.79
2018-08-23T08:42:05.236Z,25.84
2018-08-23T08:44:32.972Z,25.90
2018-08-23T08:47:01.861Z,25.91
2018-08-23T08:49:30.181Z,25.98
2018-08-23T08:51:58.497Z,25.98
2018-08-23T08:54:26.849Z,26.04
2018-08-23T08:56:56.221Z,26.12
2018-08-23T08:59:24.407Z,26.22
2018-08-23T09:01:52.141Z,26.24
2018-08-23T09:04:21.044Z,26.21
2018-08-23T09:06:49.361Z,26.25
2018-08-23T09:09:17.118Z,26.30
2018-08-23T09:11:46.009Z,26.40
2018-08-23T09:14:13.747Z,26.43
2018-08-23T09:16:42.641Z,26.49
2018-08-23T09:19:10.982Z,26.55
2018-08-23T09:21:39.283Z,26.62
2018-08-23T09:24:07.603Z,26.70
2018-08-23T09:26:35.360Z,26.69
2018-08-23T09:29:04.269Z,26.71
2018-08-23T09:31:32.608Z,26.76
2018-08-23T09:34:00.944Z,26.74
2018-08-23T09:36:29.261Z,26.77
2018-08-23T09:38:57.585Z,26.85
2018-08-23T09:41:25.444Z,26.88
2018-08-23T09:43:54.245Z,26.95
2018-08-23T09:46:22.557Z,26.92
2018-08-23T09:48:50.286Z,26.91
2018-08-23T09:51:19.189Z,26.96
2018-08-23T09:53:47.489Z,26.98
2018-08-23T09:56:15.812Z,26.98
2018-08-23T09:58:43.567Z,27.01
2018-08-23T10:01:12.462Z,27.07
2018-08-23T10:03:40.974Z,27.09
2018-08-23T10:06:09.298Z,27.16
2018-08-23T10:08:37.617Z,27.22
2018-08-23T10:11:05.935Z,27.31
2018-08-23T10:13:34.837Z,27.32
2018-08-23T10:16:03.169Z,27.43
2018-08-23T10:18:30.908Z,27.53
2018-08-23T10:20:59.240Z,27.63
2018-08-23T10:23:28.123Z,27.70
2018-08-23T10:25:56.438Z,27.71
2018-08-23T10:28:24.853Z,27.72
2018-08-23T10:30:53.163Z,27.76
2018-08-23T10:33:21.480Z,27.78
2018-08-23T10:35:49.813Z,27.87
2018-08-23T10:38:18.209Z,27.93
2018-08-23T10:40:46.481Z,27.99
2018-08-23T10:43:14.802Z,28.03
2018-08-23T10:45:43.133Z,28.08
2018-08-23T10:48:10.875Z,28.04
2018-08-23T10:50:39.240Z,28.04
2018-08-23T10:53:08.093Z,28.11
2018-08-23T10:55:35.840Z,28.18
2018-08-23T10:58:04.740Z,28.27
2018-08-23T11:00:32.470Z,28.30
2018-08-23T11:03:01.371Z,28.35
2018-08-23T11:05:29.701Z,28.37
2018-08-23T11:07:58.677Z,28.39
2018-08-23T11:10:28.768Z,28.44
2018-08-23T11:12:56.525Z,28.51
2018-08-23T11:15:25.418Z,28.57
2018-08-23T11:17:53.736Z,28.69
2018-08-23T11:20:22.051Z,28.77
2018-08-23T11:22:50.362Z,28.89
2018-08-23T11:25:18.095Z,29.01
2018-08-23T11:27:47.012Z,29.11
2018-08-23T11:30:15.332Z,29.16
2018-08-23T11:32:43.549Z,29.21
2018-08-23T11:35:11.406Z,29.34
2018-08-23T11:37:40.307Z,29.44
2018-08-23T11:40:08.065Z,29.55
2018-08-23T11:42:36.408Z,29.68
2018-08-23T11:45:04.730Z,29.77
2018-08-23T11:47:33.628Z,29.97
2018-08-23T11:50:01.949Z,30.11
2018-08-23T11:52:30.272Z,30.16
2018-08-23T11:54:58.584Z,30.25
2018-08-23T11:57:26.328Z,30.35
2018-08-23T11:59:54.859Z,30.48
2018-08-23T12:02:22.956Z,30.48
2018-08-23T12:04:51.842Z,30.49
2018-08-23T12:07:20.162Z,30.53
2018-08-23T12:09:48.501Z,30.61
2018-08-23T12:12:16.238Z,30.67
2018-08-23T12:14:44.562Z,30.84
2018-08-23T12:17:13.469Z,31.04
2018-08-23T12:19:41.782Z,31.13
2018-08-23T12:22:10.088Z,31.24
2018-08-23T12:24:38.408Z,31.31
2018-08-23T12:27:06.148Z,31.44
2018-08-23T12:29:35.083Z,31.64
2018-08-23T12:32:03.453Z,31.87
2018-08-23T12:34:31.155Z,31.97
2018-08-23T12:36:59.476Z,32.06
2018-08-23T12:39:29.623Z,32.24
2018-08-23T12:41:59.443Z,32.45
2018-08-23T12:44:27.779Z,32.61
2018-08-23T12:46:56.089Z,32.81
2018-08-23T12:49:24.538Z,33.00
2018-08-23T12:51:52.973Z,33.12
2018-08-23T12:54:20.585Z,33.24
2018-08-23T12:56:49.581Z,33.06
2018-08-23T12:59:17.851Z,33.08
2018-08-23T13:01:45.634Z,33.17
2018-08-23T13:04:15.302Z,33.34
2018-08-23T13:06:43.602Z,33.27
2018-08-23T13:09:11.948Z,32.86
2018-08-23T13:11:39.682Z,32.79
2018-08-23T13:14:08.605Z,32.83
2018-08-23T13:16:36.935Z,32.76
2018-08-23T13:19:04.680Z,32.99
2018-08-23T13:21:33.909Z,33.07
2018-08-23T13:24:02.283Z,33.04
2018-08-23T13:26:30.021Z,33.15
2018-08-23T13:28:58.348Z,33.38
2018-08-23T13:31:27.361Z,33.45
2018-08-23T13:33:55.671Z,33.54
2018-08-23T13:36:24.092Z,33.80
2018-08-23T13:38:52.568Z,34.17
2018-08-23T13:41:20.090Z,34.30
2018-08-23T13:43:48.405Z,34.50
2018-08-23T13:46:17.316Z,34.59
2018-08-23T13:48:45.639Z,34.82
2018-08-23T13:51:13.384Z,34.71
2018-08-23T13:53:41.768Z,34.53
2018-08-23T13:56:10.616Z,34.70
2018-08-23T13:58:39.177Z,34.95
2018-08-23T14:01:07.027Z,35.05
2018-08-23T14:03:35.584Z,35.36
2018-08-23T14:06:03.336Z,35.27
2018-08-23T14:08:32.217Z,35.34
2018-08-23T14:11:00.561Z,35.34
2018-08-23T14:13:28.297Z,35.39
2018-08-23T14:15:57.190Z,35.39
2018-08-23T14:18:24.940Z,35.47
2018-08-23T14:20:53.251Z,35.57
2018-08-23T14:23:22.481Z,35.54
2018-08-23T14:25:51.386Z,35.46
2018-08-23T14:28:19.136Z,35.47
2018-08-23T14:30:48.035Z,35.65
2018-08-23T14:33:16.424Z,35.73
2018-08-23T14:35:44.746Z,35.87
2018-08-23T14:38:13.381Z,35.85
2018-08-23T14:40:41.110Z,36.14
2018-08-23T14:43:10.009Z,36.15
2018-08-23T14:45:37.746Z,36.31
2018-08-23T14:48:08.428Z,36.46
2018-08-23T14:50:36.168Z,36.03
2018-08-23T14:53:05.064Z,35.83
2018-08-23T14:55:32.805Z,35.47
2018-08-23T14:58:01.697Z,35.24
2018-08-23T15:00:30.021Z,34.92
2018-08-23T15:02:59.253Z,34.88
2018-08-23T15:05:27.567Z,34.89
2018-08-23T15:07:55.914Z,35.16
2018-08-23T15:10:23.628Z,35.58
2018-08-23T15:12:52.538Z,35.98
2018-08-23T15:15:20.262Z,35.99
2018-08-23T15:17:49.167Z,36.08
2018-08-23T15:20:17.482Z,36.15
2018-08-23T15:22:45.801Z,36.14
2018-08-23T15:25:13.542Z,35.89
2018-08-23T15:27:42.443Z,35.60
2018-08-23T15:30:10.312Z,34.81
2018-08-23T15:32:38.631Z,34.23
2018-08-23T15:35:07.690Z,34.05
2018-08-23T15:37:36.005Z,34.34
2018-08-23T15:40:03.738Z,34.74
2018-08-23T15:42:32.672Z,35.08
2018-08-23T15:45:00.963Z,35.35
2018-08-23T15:47:28.730Z,35.62
2018-08-23T15:49:57.038Z,35.84
2018-08-23T15:52:25.958Z,35.91
2018-08-23T15:54:53.773Z,35.78
2018-08-23T15:57:22.021Z,35.65
2018-08-23T15:59:50.359Z,35.41
2018-08-23T16:02:19.275Z,35.24
2018-08-23T16:04:47.650Z,35.24
2018-08-23T16:07:15.993Z,35.22
2018-08-23T16:09:44.318Z,35.48
2018-08-23T16:12:12.634Z,35.29
2018-08-23T16:14:40.957Z,34.80
2018-08-23T16:17:10.212Z,34.04
2018-08-23T16:19:38.566Z,33.36
2018-08-23T16:22:06.314Z,33.02
2018-08-23T16:24:34.639Z,32.71
2018-08-23T16:27:03.534Z,32.39
2018-08-23T16:29:31.843Z,32.18
2018-08-23T16:32:00.253Z,31.94
2018-08-23T16:34:28.506Z,31.75
2018-08-23T16:36:57.570Z,31.60
2018-08-23T16:39:24.885Z,31.47
2018-08-23T16:41:53.016Z,31.33
2018-08-23T16:44:21.333Z,31.25
2018-08-23T16:46:50.256Z,31.12
2018-08-23T16:49:18.581Z,30.98
2018-08-23T16:51:46.332Z,30.86
2018-08-23T16:54:15.242Z,30.72
2018-08-23T16:56:43.561Z,30.58
2018-08-23T16:59:11.301Z,30.47
2018-08-23T17:01:39.715Z,30.34
2018-08-23T17:04:07.978Z,30.22
2018-08-23T17:06:36.863Z,30.13
2018-08-23T17:09:04.601Z,30.04
2018-08-23T17:11:32.938Z,29.95
2018-08-23T17:14:01.864Z,29.88
2018-08-23T17:16:30.198Z,29.78
2018-08-23T17:18:58.840Z,29.63
2018-08-23T17:21:26.726Z,29.48
2018-08-23T17:23:55.491Z,29.39
2018-08-23T17:26:23.246Z,29.34
2018-08-23T17:28:52.155Z,29.25
2018-08-23T17:31:19.943Z,29.16
2018-08-23T17:33:48.818Z,29.07
2018-08-23T17:36:17.138Z,29.01
2018-08-23T17:38:45.542Z,28.97
2018-08-23T17:41:13.283Z,28.94
2018-08-23T17:43:42.193Z,28.89
2018-08-23T17:46:10.514Z,28.87
2018-08-23T17:48:38.842Z,28.89
2018-08-23T17:51:06.592Z,28.88
2018-08-23T17:53:35.495Z,28.94
2018-08-23T17:56:03.896Z,28.96
2018-08-23T17:58:32.225Z,28.94
2018-08-23T18:01:00.816Z,28.91
2018-08-23T18:03:28.365Z,28.88
2018-08-23T18:05:57.435Z,28.86
2018-08-23T18:08:26.159Z,28.79
2018-08-23T18:10:53.905Z,28.71
2018-08-23T18:13:22.233Z,28.68
2018-08-23T18:15:51.377Z,28.55
2018-08-23T18:18:19.501Z,28.44
2018-08-23T18:20:47.836Z,28.41
2018-08-23T18:23:16.166Z,28.43
2018-08-23T18:25:44.517Z,28.39
2018-08-23T18:28:12.852Z,28.33
2018-08-23T18:30:41.215Z,28.29
2018-08-23T18:33:08.966Z,28.22
2018-08-23T18:35:37.904Z,28.14
2018-08-23T18:38:06.244Z,28.08
2018-08-23T18:40:34.614Z,28.02
2018-08-23T18:43:02.414Z,27.98
2018-08-23T18:45:31.321Z,27.92
2018-08-23T18:47:59.067Z,27.85
2018-08-23T18:50:27.396Z,27.80
2018-08-23T18:52:56.330Z,27.74
2018-08-23T18:55:24.631Z,27.69
2018-08-23T18:57:53.090Z,27.59
2018-08-23T19:00:21.483Z,27.43
2018-08-23T19:02:49.753Z,27.28
2018-08-23T19:05:17.518Z,27.12
2018-08-23T19:07:46.460Z,27.03
2018-08-23T19:10:14.783Z,26.95
2018-08-23T19:12:43.124Z,26.88
2018-08-23T19:15:11.461Z,26.80
2018-08-23T19:17:40.099Z,26.72
2018-08-23T19:20:08.432Z,26.67
2018-08-23T19:22:36.190Z,26.58
2018-08-23T19:25:04.514Z,26.57
2018-08-23T19:27:32.836Z,26.57
2018-08-23T19:30:01.747Z,26.57
2018-08-23T19:32:30.073Z,26.58
2018-08-23T19:34:58.425Z,26.63
2018-08-23T19:37:26.180Z,26.67
2018-08-23T19:39:55.788Z,26.63
2018-08-23T19:42:25.310Z,26.60
2018-08-23T19:44:53.186Z,26.59
2018-08-23T19:47:21.560Z,26.57
2018-08-23T19:49:49.902Z,26.43
2018-08-23T19:52:18.950Z,26.35
2018-08-23T19:54:48.983Z,26.28
2018-08-23T19:57:16.509Z,26.24
2018-08-23T19:59:45.682Z,26.20
2018-08-23T20:02:14.914Z,26.17
2018-08-23T20:04:43.294Z,26.09
2018-08-23T20:07:12.170Z,26.09
2018-08-23T20:09:39.916Z,26.04
2018-08-23T20:12:11.932Z,25.99
2018-08-23T20:14:40.295Z,25.95
2018-08-23T20:17:10.086Z,25.88
2018-08-23T20:19:38.458Z,25.87
2018-08-23T20:22:06.757Z,25.90
2018-08-23T20:24:35.117Z,25.95
2018-08-23T20:27:03.441Z,26.02
2018-08-23T20:29:31.772Z,26.05
2018-08-23T20:32:00.415Z,26.04
2018-08-23T20:34:28.767Z,26.03
2018-08-23T20:36:57.327Z,25.99
2018-08-23T20:39:25.705Z,25.94
2018-08-23T20:41:53.315Z,25.87
2018-08-23T20:44:22.834Z,25.83
2018-08-23T20:46:52.643Z,25.73
2018-08-23T20:49:19.561Z,25.66
2018-08-23T20:51:47.323Z,25.63
2018-08-23T20:54:16.246Z,25.56
2018-08-23T20:56:45.547Z,25.51
2018-08-23T20:59:13.844Z,25.45
2018-08-23T21:01:42.190Z,25.44
2018-08-23T21:04:10.613Z,25.41
2018-08-23T21:06:38.268Z,25.43
2018-08-23T21:09:06.677Z,25.39
2018-08-23T21:11:35.046Z,25.37
2018-08-23T21:14:04.010Z,25.30
2018-08-23T21:16:32.378Z,25.25
2018-08-23T21:19:00.722Z,25.20
2018-08-23T21:21:29.060Z,25.14
2018-08-23T21:23:57.710Z,25.14
2018-08-23T21:26:25.973Z,25.07
2018-08-23T21:28:54.772Z,25.02
2018-08-23T21:31:23.202Z,24.97
2018-08-23T21:33:51.042Z,24.89
2018-08-23T21:36:20.043Z,24.80
2018-08-23T21:38:48.350Z,24.83
2018-08-23T21:41:16.683Z,24.73
2018-08-23T21:43:45.214Z,24.55
2018-08-23T21:46:12.791Z,24.50
2018-08-23T21:48:41.706Z,24.42
2018-08-23T21:51:10.043Z,24.38
2018-08-23T21:53:38.477Z,24.33
2018-08-23T21:56:06.795Z,24.34
2018-08-23T21:58:35.246Z,24.39
2018-08-23T22:01:03.836Z,24.46
2018-08-23T22:03:31.583Z,24.50
2018-08-23T22:06:00.518Z,24.51
2018-08-23T22:08:29.184Z,24.53
2018-08-23T22:10:57.296Z,24.55
2018-08-23T22:13:25.620Z,24.57
2018-08-23T22:15:54.002Z,24.57
2018-08-23T22:18:21.758Z,24.56
2018-08-23T22:20:50.719Z,24.44
2018-08-23T22:23:19.017Z,24.27
2018-08-23T22:25:47.338Z,24.28
2018-08-23T22:28:15.093Z,24.34
2018-08-23T22:30:43.419Z,24.40
2018-08-23T22:33:11.745Z,24.43
2018-08-23T22:35:40.657Z,24.47
2018-08-23T22:38:08.406Z,24.51
2018-08-23T22:40:37.306Z,24.53
2018-08-23T22:43:05.055Z,24.49
2018-08-23T22:45:33.380Z,24.49
2018-08-23T22:48:02.309Z,24.46
2018-08-23T22:50:30.375Z,24.42
2018-08-23T22:52:59.275Z,24.40
2018-08-23T22:55:27.032Z,24.40
2018-08-23T22:57:55.926Z,24.42
2018-08-23T23:00:24.247Z,24.31
2018-08-23T23:02:52.566Z,24.22
2018-08-23T23:05:20.366Z,24.21
2018-08-23T23:07:48.628Z,24.21
2018-08-23T23:10:17.533Z,24.20
2018-08-23T23:12:45.855Z,24.11
2018-08-23T23:15:14.178Z,24.04
2018-08-23T23:17:42.491Z,24.06
2018-08-23T23:20:10.813Z,24.06
2018-08-23T23:22:39.358Z,24.02
2018-08-23T23:25:07.682Z,24.03
2018-08-23T23:27:35.998Z,23.99
2018-08-23T23:30:04.331Z,23.85
2018-08-23T23:32:32.069Z,23.71
2018-08-23T23:35:00.966Z,23.57
2018-08-23T23:37:28.707Z,23.56
2018-08-23T23:39:57.603Z,23.45
2018-08-23T23:42:25.928Z,23.31
2018-08-23T23:44:53.671Z,23.35
2018-08-23T23:47:22.567Z,23.35
2018-08-23T23:49:50.922Z,23.27
2018-08-23T23:52:18.657Z,23.19
2018-08-23T23:54:46.978Z,22.95
2018-08-23T23:57:15.877Z,22.73
2018-08-23T23:59:44.198Z,22.62
